createdAt,value
2018-11-04T00:00:54.460Z,18.17
2018-11-04T00:03:22.851Z,17.47
2018-11-04T00:05:51.194Z,17.57
2018-11-04T00:08:20.345Z,18.57
2018-11-04T00:10:48.714Z,16.97
2018-11-04T00:13:17.218Z,17.70
2018-11-04T00:15:45.439Z,18.30
2018-11-04T00:18:14.543Z,18.07
2018-11-04T00:20:42.937Z,18.43
2018-11-04T00:23:11.291Z,17.53
2018-11-04T00:25:40.393Z,18.80
2018-11-04T00:28:08.744Z,17.70
2018-11-04T00:30:37.181Z,18.90
2018-11-04T00:33:05.520Z,18.07
2018-11-04T00:35:34.653Z,19.67
2018-11-04T00:38:03.044Z,19.20
2018-11-04T00:40:31.371Z,19.57
2018-11-04T00:42:59.885Z,18.70
2018-11-04T00:45:28.319Z,18.53
2018-11-04T00:47:56.587Z,18.37
2018-11-04T00:50:24.926Z,19.87
2018-11-04T00:52:53.310Z,18.03
2018-11-04T00:55:21.676Z,19.20
2018-11-04T00:57:50.035Z,18.97
2018-11-04T01:00:19.246Z,17.83
2018-11-04T01:02:47.583Z,19.60
2018-11-04T01:05:15.957Z,18.43
2018-11-04T01:07:44.298Z,19.50
2018-11-04T01:10:12.675Z,20.00
2018-11-04T01:12:41.026Z,20.43
2018-11-04T01:15:09.360Z,20.67
2018-11-04T01:17:37.808Z,18.57
2018-11-04T01:20:06.134Z,19.00
2018-11-04T01:22:34.498Z,19.97
2018-11-04T01:25:02.851Z,19.37
2018-11-04T01:27:31.186Z,19.77
2018-11-04T01:30:00.279Z,20.17
2018-11-04T01:32:29.436Z,19.97
2018-11-04T01:34:57.788Z,19.63
2018-11-04T01:37:26.267Z,20.27
2018-11-04T01:39:54.599Z,19.97
2018-11-04T01:42:23.090Z,21.10
2018-11-04T01:44:51.476Z,20.13
2018-11-04T01:47:19.806Z,20.23
2018-11-04T01:49:48.159Z,20.23
2018-11-04T01:52:16.540Z,20.83
2018-11-04T01:54:44.948Z,21.30
2018-11-04T01:57:13.898Z,21.07
2018-11-04T01:59:42.296Z,22.17
2018-11-04T02:02:10.639Z,22.77
2018-11-04T02:04:38.988Z,23.47
2018-11-04T02:07:07.334Z,22.07
2018-11-04T02:09:35.738Z,22.83
2018-11-04T02:12:04.037Z,23.00
2018-11-04T02:14:32.392Z,21.63
2018-11-04T02:17:00.728Z,22.03
2018-11-04T02:19:29.978Z,21.93
2018-11-04T02:21:58.319Z,21.63
2018-11-04T02:24:26.666Z,22.03
2018-11-04T02:26:55.000Z,22.10
2018-11-04T02:29:23.462Z,21.70
2018-11-04T02:31:51.814Z,21.33
2018-11-04T02:34:21.060Z,21.70
2018-11-04T02:36:49.539Z,22.63
2018-11-04T02:39:17.888Z,22.47
2018-11-04T02:41:46.360Z,21.50
2018-11-04T02:44:14.871Z,22.03
2018-11-04T02:46:43.296Z,22.97
2018-11-04T02:49:11.625Z,22.00
2018-11-04T02:51:40.103Z,23.43
2018-11-04T02:54:08.532Z,23.90
2018-11-04T02:56:36.879Z,24.23
2018-11-04T02:59:05.203Z,23.40
2018-11-04T03:01:33.633Z,25.13
2018-11-04T03:04:02.179Z,26.13
2018-11-04T03:06:30.527Z,24.83
2018-11-04T03:08:58.847Z,26.20
2018-11-04T03:11:27.982Z,25.57
2018-11-04T03:13:56.365Z,25.43
2018-11-04T03:16:24.745Z,26.83
2018-11-04T03:18:53.083Z,25.83
2018-11-04T03:21:22.191Z,26.23
2018-11-04T03:23:50.522Z,25.53
2018-11-04T03:26:19.165Z,25.33
2018-11-04T03:28:47.485Z,24.83
2018-11-04T03:31:15.918Z,25.30
2018-11-04T03:33:44.299Z,25.70
2018-11-04T03:36:12.683Z,24.87
2018-11-04T03:38:41.029Z,24.83
2018-11-04T03:41:10.134Z,25.77
2018-11-04T03:43:39.243Z,25.27
2018-11-04T03:46:07.579Z,25.07
2018-11-04T03:48:36.022Z,26.13
2018-11-04T03:51:04.463Z,25.07
2018-11-04T03:53:33.578Z,24.37
2018-11-04T03:56:01.963Z,24.27
2018-11-04T03:58:30.323Z,25.30
2018-11-04T04:00:59.422Z,25.03
2018-11-04T04:03:28.533Z,26.67
2018-11-04T04:05:56.866Z,26.67
2018-11-04T04:08:25.220Z,25.17
2018-11-04T04:10:53.583Z,24.93
2018-11-04T04:13:22.078Z,24.87
2018-11-04T04:15:50.412Z,26.03
2018-11-04T04:18:18.826Z,25.70
2018-11-04T04:20:47.167Z,26.17
2018-11-04T04:23:16.274Z,25.70
2018-11-04T04:25:44.636Z,25.43
2018-11-04T04:28:12.977Z,24.73
2018-11-04T04:30:41.320Z,24.73
2018-11-04T04:33:09.646Z,25.03
2018-11-04T04:35:38.062Z,25.87
2018-11-04T04:38:07.172Z,24.07
2018-11-04T04:40:35.553Z,25.47
2018-11-04T04:43:03.947Z,24.97
2018-11-04T04:45:32.311Z,24.67
2018-11-04T04:48:00.630Z,24.47
2018-11-04T04:50:28.994Z,23.50
2018-11-04T04:52:57.358Z,24.10
2018-11-04T04:55:25.694Z,23.53
2018-11-04T04:57:54.036Z,25.07
2018-11-04T05:00:22.352Z,25.13
2018-11-04T05:02:50.714Z,24.20
2018-11-04T05:05:19.151Z,24.23
2018-11-04T05:07:47.506Z,25.03
2018-11-04T05:10:16.605Z,25.27
2018-11-04T05:12:45.734Z,23.87
2018-11-04T05:15:14.084Z,25.43
2018-11-04T05:17:43.300Z,25.67
2018-11-04T05:20:11.639Z,24.10
2018-11-04T05:22:40.050Z,25.17
2018-11-04T05:25:08.412Z,24.40
2018-11-04T05:27:37.502Z,25.00
2018-11-04T05:30:06.610Z,25.40
2018-11-04T05:32:35.703Z,25.63
2018-11-04T05:35:04.828Z,24.33
2018-11-04T05:37:33.162Z,23.73
2018-11-04T05:40:01.606Z,24.23
2018-11-04T05:42:29.960Z,24.47
2018-11-04T05:44:58.342Z,23.97
2018-11-04T05:47:26.732Z,22.73
2018-11-04T05:49:55.059Z,23.13
2018-11-04T05:52:23.494Z,23.00
2018-11-04T05:54:51.820Z,23.73
2018-11-04T05:57:20.267Z,23.83
2018-11-04T05:59:48.586Z,22.50
2018-11-04T06:02:17.007Z,23.87
2018-11-04T06:04:45.343Z,22.43
2018-11-04T06:07:13.752Z,22.50
2018-11-04T06:09:42.084Z,23.20
2018-11-04T06:12:10.529Z,23.13
2018-11-04T06:14:38.846Z,23.07
2018-11-04T06:17:07.191Z,23.70
2018-11-04T06:19:35.687Z,22.33
2018-11-04T06:22:03.932Z,23.67
2018-11-04T06:24:32.315Z,21.53
2018-11-04T06:27:00.640Z,22.07
2018-11-04T06:29:28.994Z,22.70
2018-11-04T06:31:57.311Z,23.63
2018-11-04T06:34:26.518Z,23.40
2018-11-04T06:36:54.773Z,24.00
2018-11-04T06:39:23.202Z,23.03
2018-11-04T06:41:51.589Z,21.77
2018-11-04T06:44:19.946Z,22.00
2018-11-04T06:46:49.069Z,22.70
2018-11-04T06:49:17.383Z,22.03
2018-11-04T06:51:45.719Z,22.23
2018-11-04T06:54:14.055Z,22.93
2018-11-04T06:56:42.403Z,22.90
2018-11-04T06:59:10.761Z,22.37
2018-11-04T07:01:39.163Z,21.20
2018-11-04T07:04:08.357Z,22.07
2018-11-04T07:06:36.722Z,23.17
2018-11-04T07:09:05.171Z,23.23
2018-11-04T07:11:33.435Z,23.07
2018-11-04T07:14:01.853Z,24.60
2018-11-04T07:16:30.179Z,24.57
2018-11-04T07:18:58.606Z,24.80
2018-11-04T07:21:26.935Z,25.03
2018-11-04T07:23:55.368Z,27.20
2018-11-04T07:26:23.717Z,26.00
2018-11-04T07:28:52.821Z,25.07
2018-11-04T07:31:21.919Z,25.13
2018-11-04T07:33:51.048Z,23.83
2018-11-04T07:36:19.397Z,24.03
2018-11-04T07:38:48.532Z,23.67
2018-11-04T07:41:16.868Z,25.53
2018-11-04T07:43:45.975Z,27.37
2018-11-04T07:46:14.359Z,26.27
2018-11-04T07:48:42.704Z,27.33
2018-11-04T07:51:11.043Z,25.87
2018-11-04T07:53:39.381Z,27.83
2018-11-04T07:56:08.489Z,29.80
2018-11-04T07:58:36.878Z,28.17
2018-11-04T08:01:05.334Z,27.73
2018-11-04T08:03:33.640Z,29.63
2018-11-04T08:06:02.727Z,28.90
2018-11-04T08:08:31.047Z,27.60
2018-11-04T08:10:59.487Z,30.77
2018-11-04T08:13:27.842Z,30.93
2018-11-04T08:15:56.176Z,29.30
2018-11-04T08:18:24.521Z,29.57
2018-11-04T08:20:52.839Z,33.23
2018-11-04T08:23:21.387Z,31.07
2018-11-04T08:25:49.727Z,29.07
2018-11-04T08:28:18.065Z,27.90
2018-11-04T08:30:46.459Z,29.87
2018-11-04T08:33:14.808Z,28.47
2018-11-04T08:35:43.120Z,30.17
2018-11-04T08:38:11.563Z,30.83
2018-11-04T08:40:39.890Z,31.63
2018-11-04T08:43:08.314Z,30.63
2018-11-04T08:45:36.669Z,29.87
2018-11-04T08:48:05.783Z,29.30
2018-11-04T08:50:34.200Z,23.93
2018-11-04T08:53:02.548Z,30.47
2018-11-04T08:55:30.895Z,27.57
2018-11-04T08:58:00.025Z,29.10
2018-11-04T09:00:28.423Z,27.73
2018-11-04T09:02:56.782Z,29.00
2018-11-04T09:05:25.137Z,29.90
2018-11-04T09:07:54.348Z,29.20
2018-11-04T09:10:22.712Z,28.37
2018-11-04T09:12:51.041Z,27.80
2018-11-04T09:15:19.401Z,27.80
2018-11-04T09:17:47.809Z,26.43
2018-11-04T09:20:16.176Z,28.90
2018-11-04T09:22:44.554Z,27.53
2018-11-04T09:25:12.861Z,28.73
2018-11-04T09:27:41.209Z,29.87
2018-11-04T09:30:09.562Z,30.63
2018-11-04T09:32:38.676Z,31.53
2018-11-04T09:35:07.189Z,30.77
2018-11-04T09:37:36.141Z,34.30
2018-11-04T09:40:04.471Z,35.40
2018-11-04T09:42:32.924Z,36.33
2018-11-04T09:45:01.263Z,36.23
2018-11-04T09:47:29.672Z,35.50
2018-11-04T09:49:58.114Z,34.77
2018-11-04T09:52:26.430Z,37.87
2018-11-04T09:54:54.763Z,38.57
2018-11-04T09:57:23.901Z,37.30
2018-11-04T09:59:52.251Z,34.87
2018-11-04T10:02:21.417Z,36.57
2018-11-04T10:04:49.752Z,35.10
2018-11-04T10:07:18.179Z,35.03
2018-11-04T10:09:46.527Z,35.53
2018-11-04T10:12:14.893Z,33.27
2018-11-04T10:14:43.276Z,31.60
2018-11-04T10:17:11.659Z,30.90
2018-11-04T10:19:40.167Z,32.07
2018-11-04T10:22:08.405Z,28.87
2018-11-04T10:24:36.773Z,28.67
2018-11-04T10:27:05.137Z,27.17
2018-11-04T10:29:34.273Z,26.53
2018-11-04T10:32:02.616Z,27.57
2018-11-04T10:34:31.759Z,27.00
2018-11-04T10:37:00.152Z,27.97
2018-11-04T10:39:28.731Z,27.10
2018-11-04T10:41:57.084Z,26.13
2018-11-04T10:44:25.479Z,26.57
2018-11-04T10:46:53.818Z,26.13
2018-11-04T10:49:22.298Z,27.83
2018-11-04T10:51:50.680Z,27.77
2018-11-04T10:54:19.055Z,27.73
2018-11-04T10:56:48.216Z,32.20
2018-11-04T10:59:16.575Z,26.57
2018-11-04T11:01:44.967Z,26.50
2018-11-04T11:04:13.303Z,22.57
2018-11-04T11:06:41.675Z,21.50
2018-11-04T11:09:10.785Z,20.00
2018-11-04T11:11:39.361Z,20.00
2018-11-04T11:14:07.765Z,19.00
2018-11-04T11:16:36.191Z,19.77
2018-11-04T11:19:04.514Z,20.57
2018-11-04T11:21:33.134Z,17.97
2018-11-04T11:24:01.982Z,19.67
2018-11-04T11:26:30.506Z,18.50
2018-11-04T11:28:58.982Z,17.50
2018-11-04T11:31:27.328Z,18.60
2018-11-04T11:33:56.557Z,19.40
2018-11-04T11:36:24.924Z,20.37
2018-11-04T11:38:53.402Z,20.45
2018-11-04T11:41:21.813Z,18.00
2018-11-04T11:43:50.143Z,17.87
2018-11-04T11:46:18.659Z,17.10
2018-11-04T11:48:47.022Z,21.50
2018-11-04T11:51:15.477Z,18.83
2018-11-04T11:53:43.823Z,17.48
2018-11-04T11:56:12.259Z,17.23
2018-11-04T11:58:40.635Z,16.08
2018-11-04T12:01:09.105Z,16.33
2018-11-04T12:03:37.437Z,17.17
2018-11-04T12:06:05.849Z,15.75
2018-11-04T12:08:35.003Z,16.33
2018-11-04T12:11:03.382Z,15.77
2018-11-04T12:13:31.751Z,16.58
2018-11-04T12:16:00.089Z,16.20
2018-11-04T12:18:29.217Z,16.60
2018-11-04T12:20:57.562Z,16.67
2018-11-04T12:23:26.738Z,16.25
2018-11-04T12:25:55.094Z,16.10
2018-11-04T12:28:23.466Z,16.33
2018-11-04T12:30:51.820Z,16.20
2018-11-04T12:33:20.192Z,16.20
2018-11-04T12:35:48.550Z,15.60
2018-11-04T12:38:17.673Z,15.82
2018-11-04T12:40:46.028Z,16.48
2018-11-04T12:43:14.446Z,21.17
2018-11-04T12:45:42.857Z,16.23
2018-11-04T12:48:11.218Z,14.63
2018-11-04T12:50:39.600Z,15.60
2018-11-04T12:53:07.960Z,15.40
2018-11-04T12:55:36.307Z,15.30
2018-11-04T12:58:05.446Z,16.40
2018-11-04T13:00:33.782Z,16.37
2018-11-04T13:03:02.926Z,15.37
2018-11-04T13:05:31.269Z,15.23
2018-11-04T13:07:59.637Z,15.40
2018-11-04T13:10:28.762Z,15.03
2018-11-04T13:12:57.132Z,16.00
2018-11-04T13:15:25.501Z,15.03
2018-11-04T13:17:53.872Z,16.00
2018-11-04T13:20:22.997Z,15.67
2018-11-04T13:22:51.345Z,15.37
2018-11-04T13:25:20.579Z,15.57
2018-11-04T13:27:48.924Z,16.30
2018-11-04T13:30:18.107Z,14.97
2018-11-04T13:32:46.412Z,15.47
2018-11-04T13:35:14.810Z,16.43
2018-11-04T13:37:43.182Z,19.57
2018-11-04T13:40:11.516Z,17.23
2018-11-04T13:42:39.885Z,15.17
2018-11-04T13:45:08.227Z,15.37
2018-11-04T13:47:36.606Z,15.43
2018-11-04T13:50:04.959Z,15.00
2018-11-04T13:52:33.457Z,14.20
2018-11-04T13:55:01.801Z,16.23
2018-11-04T13:57:30.141Z,14.90
2018-11-04T13:59:58.501Z,15.23
2018-11-04T14:02:26.868Z,14.93
2018-11-04T14:04:56.002Z,15.23
2018-11-04T14:07:24.347Z,15.47
2018-11-04T14:09:52.710Z,15.20
2018-11-04T14:12:21.065Z,14.77
2018-11-04T14:14:49.511Z,14.33
2018-11-04T14:17:17.835Z,14.73
2018-11-04T14:19:47.071Z,13.93
2018-11-04T14:22:15.406Z,14.33
2018-11-04T14:24:44.569Z,15.10
2018-11-04T14:27:12.950Z,14.90
2018-11-04T14:29:41.305Z,14.77
2018-11-04T14:32:09.656Z,14.93
2018-11-04T14:34:38.890Z,14.60
2018-11-04T14:37:07.236Z,15.47
2018-11-04T14:39:35.605Z,14.63
2018-11-04T14:42:03.938Z,14.60
2018-11-04T14:44:32.283Z,15.83
2018-11-04T14:47:00.627Z,16.63
2018-11-04T14:49:28.995Z,17.23
2018-11-04T14:51:57.355Z,18.07
2018-11-04T14:54:25.734Z,18.20
2018-11-04T14:56:54.092Z,19.07
2018-11-04T14:59:22.478Z,19.00
2018-11-04T15:01:50.921Z,18.67
2018-11-04T15:04:19.180Z,19.00
2018-11-04T15:06:47.557Z,18.90
2018-11-04T15:09:15.898Z,19.03
2018-11-04T15:11:44.282Z,20.07
2018-11-04T15:14:12.637Z,20.33
2018-11-04T15:16:41.023Z,19.87
2018-11-04T15:19:09.463Z,20.77
2018-11-04T15:21:38.522Z,20.80
2018-11-04T15:24:07.597Z,24.23
2018-11-04T15:26:36.019Z,34.73
2018-11-04T15:29:04.366Z,25.27
2018-11-04T15:31:32.773Z,21.63
2018-11-04T15:34:01.169Z,21.43
2018-11-04T15:36:29.539Z,20.37
2018-11-04T15:38:58.052Z,20.70
2018-11-04T15:41:26.373Z,20.17
2018-11-04T15:43:54.742Z,19.90
2018-11-04T15:46:23.111Z,20.63
2018-11-04T15:48:51.543Z,19.27
2018-11-04T15:51:19.837Z,20.37
2018-11-04T15:53:48.191Z,20.97
2018-11-04T15:56:16.548Z,21.03
2018-11-04T15:58:44.945Z,20.97
2018-11-04T16:01:13.302Z,20.97
2018-11-04T16:03:41.693Z,20.67
2018-11-04T16:06:10.048Z,21.40
2018-11-04T16:08:38.419Z,21.63
2018-11-04T16:11:06.822Z,22.00
2018-11-04T16:13:35.165Z,22.57
2018-11-04T16:16:03.550Z,21.77
2018-11-04T16:18:31.915Z,23.13
2018-11-04T16:21:00.263Z,24.70
2018-11-04T16:23:28.611Z,25.03
2018-11-04T16:25:56.947Z,24.10
2018-11-04T16:28:26.080Z,25.03
2018-11-04T16:30:54.451Z,25.67
2018-11-04T16:33:22.952Z,25.27
2018-11-04T16:35:51.247Z,26.00
2018-11-04T16:38:19.623Z,29.03
2018-11-04T16:40:47.952Z,34.47
2018-11-04T16:43:16.339Z,31.53
2018-11-04T16:45:44.761Z,29.07
2018-11-04T16:48:13.133Z,29.37
2018-11-04T16:50:41.491Z,27.30
2018-11-04T16:53:09.848Z,28.07
2018-11-04T16:55:38.974Z,28.43
2018-11-04T16:58:07.310Z,28.10
2018-11-04T17:00:35.708Z,27.77
2018-11-04T17:03:04.128Z,28.97
2018-11-04T17:05:32.653Z,29.27
2018-11-04T17:08:00.821Z,28.07
2018-11-04T17:10:29.218Z,27.97
2018-11-04T17:12:58.319Z,30.00
2018-11-04T17:15:26.933Z,28.63
2018-11-04T17:17:55.491Z,28.83
2018-11-04T17:20:23.766Z,21.67
2018-11-04T17:22:52.902Z,29.60
2018-11-04T17:25:21.270Z,29.07
2018-11-04T17:27:49.662Z,29.77
2018-11-04T17:30:18.019Z,30.63
2018-11-04T17:32:46.378Z,29.20
2018-11-04T17:35:14.746Z,29.27
2018-11-04T17:37:43.889Z,29.10
2018-11-04T17:40:12.233Z,29.10
2018-11-04T17:42:40.636Z,29.60
2018-11-04T17:45:09.024Z,30.30
2018-11-04T17:47:37.382Z,30.63
2018-11-04T17:50:05.896Z,29.47
2018-11-04T17:52:34.238Z,27.23
2018-11-04T17:55:02.589Z,30.27
2018-11-04T17:57:30.965Z,28.63
2018-11-04T17:59:59.523Z,30.10
2018-11-04T18:02:27.852Z,30.30
2018-11-04T18:04:56.223Z,28.77
2018-11-04T18:07:25.394Z,28.73
2018-11-04T18:09:53.858Z,29.07
2018-11-04T18:12:22.211Z,28.93
2018-11-04T18:14:50.565Z,28.37
2018-11-04T18:17:19.807Z,30.27
2018-11-04T18:19:48.184Z,29.07
2018-11-04T18:22:16.567Z,29.37
2018-11-04T18:24:44.946Z,29.43
2018-11-04T18:27:13.427Z,29.50
2018-11-04T18:29:41.801Z,31.23
2018-11-04T18:32:10.254Z,44.73
2018-11-04T18:34:39.389Z,34.07
2018-11-04T18:37:07.819Z,32.03
2018-11-04T18:39:36.923Z,28.87
2018-11-04T18:42:05.337Z,30.43
2018-11-04T18:44:33.803Z,29.10
2018-11-04T18:47:02.105Z,29.63
2018-11-04T18:49:30.457Z,45.47
2018-11-04T18:51:58.881Z,38.70
2018-11-04T18:54:27.271Z,31.20
2018-11-04T18:56:55.738Z,28.40
2018-11-04T18:59:24.407Z,28.20
2018-11-04T19:01:52.768Z,27.17
2018-11-04T19:04:21.185Z,26.70
2018-11-04T19:06:49.524Z,26.27
2018-11-04T19:09:17.982Z,36.33
2018-11-04T19:11:46.383Z,40.67
2018-11-04T19:14:14.683Z,35.27
2018-11-04T19:16:43.032Z,29.77
2018-11-04T19:19:11.744Z,28.40
2018-11-04T19:21:40.900Z,27.20
2018-11-04T19:24:10.127Z,27.47
2018-11-04T19:26:38.531Z,25.30
2018-11-04T19:29:06.876Z,26.23
2018-11-04T19:31:36.022Z,25.73
2018-11-04T19:34:04.361Z,32.23
2018-11-04T19:36:32.742Z,40.70
2018-11-04T19:39:01.137Z,35.43
2018-11-04T19:41:29.508Z,28.43
2018-11-04T19:43:57.865Z,26.17
2018-11-04T19:46:26.261Z,24.83
2018-11-04T19:48:54.666Z,25.03
2018-11-04T19:51:23.041Z,24.60
2018-11-04T19:53:51.398Z,24.20
2018-11-04T19:56:19.942Z,22.73
2018-11-04T19:58:48.381Z,23.90
2018-11-04T20:01:16.798Z,23.60
2018-11-04T20:03:45.163Z,29.17
2018-11-04T20:06:13.615Z,39.63
2018-11-04T20:08:42.693Z,34.13
2018-11-04T20:11:11.076Z,27.90
2018-11-04T20:16:34.361Z,29.40
2018-11-04T20:19:02.758Z,25.60
2018-11-04T20:21:31.838Z,24.73
2018-11-04T20:24:00.205Z,23.57
2018-11-04T20:26:28.655Z,24.87
2018-11-04T20:28:57.016Z,24.10
2018-11-04T20:31:25.567Z,26.83
2018-11-04T20:33:53.985Z,25.63
2018-11-04T20:36:22.324Z,27.13
2018-11-04T20:38:50.696Z,27.30
2018-11-04T20:41:25.132Z,26.57
2018-11-04T20:43:53.616Z,26.17
2018-11-04T20:46:22.144Z,25.60
2018-11-04T20:48:56.318Z,26.97
2018-11-04T20:51:24.683Z,24.97
2018-11-04T20:53:53.037Z,24.90
2018-11-04T20:56:21.417Z,24.67
2018-11-04T20:58:49.941Z,25.50
2018-11-04T21:01:18.309Z,26.23
2018-11-04T21:03:46.718Z,24.73
2018-11-04T21:06:15.041Z,26.57
2018-11-04T21:08:44.285Z,25.30
2018-11-04T21:11:12.651Z,25.30
2018-11-04T21:13:41.009Z,26.03
2018-11-04T21:16:10.413Z,26.43
2018-11-04T21:18:38.608Z,25.47
2018-11-04T21:21:07.181Z,26.23
2018-11-04T21:23:35.613Z,24.50
2018-11-04T21:26:04.191Z,26.70
2018-11-04T21:28:32.833Z,27.50
2018-11-04T21:31:01.058Z,28.43
2018-11-04T21:33:29.464Z,27.10
2018-11-04T21:35:57.830Z,26.30
2018-11-04T21:38:26.975Z,24.73
2018-11-04T21:40:55.355Z,26.27
2018-11-04T21:43:23.904Z,25.30
2018-11-04T21:45:52.820Z,26.23
2018-11-04T21:48:21.196Z,24.13
2018-11-04T21:50:49.573Z,24.50
2018-11-04T21:53:17.949Z,24.23
2018-11-04T21:55:46.638Z,24.90
2018-11-04T21:58:14.728Z,23.70
2018-11-04T22:00:43.071Z,24.37
2018-11-04T22:03:11.652Z,23.17
2018-11-04T22:05:39.974Z,24.13
2018-11-04T22:08:08.330Z,23.27
2018-11-04T22:10:36.743Z,21.83
2018-11-04T22:13:05.812Z,22.07
2018-11-04T22:15:34.160Z,22.27
2018-11-04T22:18:03.286Z,22.43
2018-11-04T22:20:31.640Z,20.17
2018-11-04T22:23:00.763Z,21.73
2018-11-04T22:25:29.104Z,22.00
2018-11-04T22:27:58.284Z,21.40
2018-11-04T22:30:26.636Z,21.53
2018-11-04T22:32:54.998Z,20.23
2018-11-04T22:35:23.338Z,20.60
2018-11-04T22:37:52.459Z,20.03
2018-11-04T22:40:21.003Z,20.80
2018-11-04T22:42:49.422Z,21.40
2018-11-04T22:45:17.766Z,19.63
2018-11-04T22:47:46.922Z,19.77
2018-11-04T22:50:15.232Z,18.43
2018-11-04T22:52:43.594Z,18.80
2018-11-04T22:55:12.030Z,18.63
2018-11-04T22:57:41.128Z,19.93
2018-11-04T23:00:09.491Z,19.17
2018-11-04T23:02:38.630Z,19.57
2018-11-04T23:05:07.032Z,19.53
2018-11-04T23:07:35.480Z,18.77
2018-11-04T23:10:03.849Z,20.10
2018-11-04T23:12:32.195Z,18.63
2018-11-04T23:15:01.445Z,19.73
2018-11-04T23:17:29.782Z,19.00
2018-11-04T23:19:58.918Z,18.10
2018-11-04T23:22:27.316Z,18.40
2018-11-04T23:24:55.690Z,18.87
2018-11-04T23:27:24.066Z,19.80
2018-11-04T23:29:52.417Z,18.80
2018-11-04T23:32:20.927Z,18.30
2018-11-04T23:34:50.231Z,17.77
2018-11-04T23:37:18.934Z,17.70
2018-11-04T23:39:47.288Z,17.90
2018-11-04T23:42:16.597Z,18.33
2018-11-04T23:44:44.921Z,18.70
2018-11-04T23:47:14.196Z,18.30
2018-11-04T23:49:42.639Z,18.27
2018-11-04T23:52:11.041Z,18.23
2018-11-04T23:54:39.831Z,17.63
2018-11-04T23:57:08.208Z,18.30
2018-11-04T23:59:36.559Z,18.63
